Archival Weather

Columbia Gorge Rgnl/the Dalles Muni

The Dalles, Washington (KDLS)

Report from: Wednesday, August 16, 2023 4:53 PM PDT
Current time: Tuesday, June 18, 2024 4:53 AM PDT

Current weather – Weather history – Daily summaries
Weather forecast

Temperature42.2°C (108.0°F)
Heat index41.1°C (105.9°F)
Dew point11.1°C (52.0°F)
Winds 11 kts (5.7 m/s, 12.7 mph) Northwest (320°)
Visibility10 mi. (16.1 km)
Clouds Sky clear
Altimeter29.77 in.Hg (1008 mB)
Relative humidity16 %
Density altitude3,412 ft. (1,040 m)
Sea-level pressure100.8 kPa (1008 mB, 29.76 in.Hg)
Max temp last 6 hours43.3°C (109.9°F)
Min temp last 6 hours34.4°C (93.9°F)
Remarks Fully automated report
Automated weather observing station with precipitation discriminator
Pressure falling more slowly
Flight conditions Visual Meteorological Conditions
Raw dataKDLS 162353Z AUTO 32011KT 10SM CLR 42/11 A2977 RMK AO2 SLP078 T04220111 10433 20344 56022
An error has occurred. This application may no longer respond until reloaded. Reload 🗙